Time;durP1;ratioP1;P1;durP2;ratioP2;P2;SDS_P1;SDS_P2;PMS_P1;PMS_P2;Temp;Humidity;BMP_temperature;BMP_pressure;BME280_temperature;BME280_humidity;BME280_pressure;Samples;Min_cycle;Max_cycle;Signal;HPM_P1;HPM_P2
2020/12/06 14:45:58;;;;;;;;;;;12.50;99.90;;;;;;5074373;28;19912;-82
2020/12/06 14:48:23;;;;;;;;;;;12.40;99.90;;;;;;5105221;28;19919;-82
2020/12/06 14:50:49;;;;;;;;;;;12.40;99.90;;;;;;5074738;28;19936;-84
2020/12/06 14:53:14;;;;;;;;;;;12.50;99.90;;;;;;5070954;28;20277;-82
2020/12/06 14:55:40;;;;;;;;;;;12.40;99.90;;;;;;5071112;28;19909;-84
2020/12/06 14:58:05;;;;;;;;;;;12.40;99.90;;;;;;5071143;28;20381;-81
2020/12/06 15:00:31;;;;;;;;;;;12.40;99.90;;;;;;5072727;28;19909;-82
2020/12/06 15:02:57;;;;;;;;;;;12.50;99.90;;;;;;5068306;28;20004;-82
2020/12/06 15:05:22;;;;;;;;;;;12.50;99.90;;;;;;5068124;28;19923;-80
2020/12/06 15:07:48;;;;;;;;;;;12.50;99.90;;;;;;5078177;28;19909;-82
2020/12/06 15:10:13;;;;;;;;;;;12.50;99.90;;;;;;5076179;28;19995;-83
2020/12/06 15:12:39;;;;;;;;;;;12.50;99.90;;;;;;5074245;28;20400;-82
2020/12/06 15:15:05;;;;;;;;;;;12.50;99.90;;;;;;5071992;28;19920;-82
2020/12/06 15:17:31;;;;;;;;;;;12.60;99.90;;;;;;5070994;28;19909;-84
2020/12/06 15:19:56;;;;;;;;;;;12.60;99.90;;;;;;5070831;28;19913;-84
2020/12/06 15:22:22;;;;;;;;;;;12.60;99.90;;;;;;5069760;28;20435;-82
2020/12/06 15:24:48;;;;;;;;;;;12.60;99.90;;;;;;5106275;28;19917;-82
2020/12/06 15:27:13;;;;;;;;;;;12.60;99.90;;;;;;5074176;28;19930;-82
2020/12/06 15:29:39;;;;;;;;;;;12.50;99.90;;;;;;5070316;28;19912;-83
2020/12/06 15:32:05;;;;;;;;;;;12.60;99.90;;;;;;5074703;28;19970;-82
2020/12/06 15:34:30;;;;;;;;;;;12.50;99.90;;;;;;5068784;28;19915;-81
2020/12/06 15:36:56;;;;;;;;;;;12.50;99.90;;;;;;5068710;28;20337;-82
2020/12/06 15:39:21;;;;;;;;;;;12.50;99.90;;;;;;5067337;28;19931;-81
2020/12/06 15:41:47;;;;;;;;;;;12.50;99.90;;;;;;5067416;28;19925;-80
2020/12/06 15:44:12;;;;;;;;;;;12.50;99.90;;;;;;5073163;28;19920;-82
2020/12/06 15:46:38;;;;;;;;;;;12.50;99.90;;;;;;5071654;28;19909;-83
2020/12/06 15:49:04;;;;;;;;;;;12.50;99.90;;;;;;5076215;28;19908;-82
2020/12/06 15:51:29;;;;;;;;;;;12.50;99.90;;;;;;5071880;28;19962;-84
2020/12/06 15:53:55;;;;;;;;;;;12.50;99.90;;;;;;5071435;28;19909;-80
2020/12/06 15:56:21;;;;;;;;;;;12.50;99.90;;;;;;5063168;28;19915;-81
2020/12/06 15:58:48;;;;;;;;;;;12.50;99.90;;;;;;5055567;28;19915;-77
2020/12/06 16:01:14;;;;;;;;;;;12.50;99.90;;;;;;5055502;28;19909;-79
2020/12/06 16:03:41;;;;;;;;;;;12.50;99.90;;;;;;5061905;28;20011;-82
2020/12/06 16:06:07;;;;;;;;;;;12.50;99.90;;;;;;5056474;28;19935;-80
2020/12/06 16:08:33;;;;;;;;;;;12.50;99.90;;;;;;5058342;28;20357;-82
2020/12/06 16:11:00;;;;;;;;;;;12.50;99.90;;;;;;5050529;28;20385;-82
2020/12/06 16:13:25;;;;;;;;;;;12.50;99.90;;;;;;5052096;28;20004;-81
2020/12/06 16:15:52;;;;;;;;;;;12.50;99.90;;;;;;5056689;28;20340;-83
2020/12/06 16:18:18;;;;;;;;;;;12.50;99.90;;;;;;5052975;28;20008;-82
2020/12/06 16:20:43;;;;;;;;;;;12.50;99.90;;;;;;5055353;28;20354;-84
2020/12/06 16:23:09;;;;;;;;;;;12.50;99.90;;;;;;5053509;28;19913;-82
2020/12/06 16:25:34;;;;;;;;;;;12.50;99.90;;;;;;5060729;28;19986;-80
2020/12/06 16:28:00;;;;;;;;;;;12.50;99.90;;;;;;5060474;28;20277;-85
2020/12/06 16:30:25;;;;;;;;;;;12.60;99.90;;;;;;5063225;28;19943;-86
2020/12/06 16:32:51;;;;;;;;;;;12.60;99.90;;;;;;5054051;28;19913;-85
2020/12/06 16:35:18;;;;;;;;;;;12.60;99.90;;;;;;5055821;28;19913;-83
2020/12/06 16:37:43;;;;;;;;;;;12.60;99.90;;;;;;5091852;28;19924;-83
2020/12/06 16:40:09;;;;;;;;;;;12.70;99.90;;;;;;5085203;28;19913;-79
2020/12/06 16:42:35;;;;;;;;;;;12.60;99.90;;;;;;5052358;28;19913;-82
2020/12/06 16:45:01;;;;;;;;;;;12.60;99.90;;;;;;5057521;28;19927;-84
2020/12/06 16:47:27;;;;;;;;;;;12.60;99.90;;;;;;5053303;28;20008;-82
2020/12/06 16:49:54;;;;;;;;;;;12.50;99.90;;;;;;5053761;28;19991;-83
2020/12/06 16:52:23;;;;;;;;;;;12.50;99.90;;;;;;5055454;28;19912;-80
2020/12/06 16:54:49;;;;;;;;;;;12.50;99.90;;;;;;5058349;28;19916;-83
2020/12/06 16:57:14;;;;;;;;;;;12.40;99.90;;;;;;5054653;28;19983;-81
2020/12/06 16:59:40;;;;;;;;;;;12.40;99.90;;;;;;5053179;28;20750;-82
2020/12/06 17:02:06;;;;;;;;;;;12.40;99.90;;;;;;5058836;28;20523;-82
2020/12/06 17:04:31;;;;;;;;;;;12.40;99.90;;;;;;5050788;28;19920;-82
2020/12/06 17:06:57;;;;;;;;;;;12.40;99.90;;;;;;5050681;28;19912;-81
2020/12/06 17:09:22;;;;;;;;;;;12.40;99.90;;;;;;5048043;28;20321;-79
2020/12/06 17:11:54;;;;;;;;;;;12.40;99.90;;;;;;5052366;28;19916;-81
2020/12/06 17:14:19;;;;;;;;;;;12.40;99.90;;;;;;5052339;28;20000;-83
2020/12/06 17:16:45;;;;;;;;;;;12.40;99.90;;;;;;5051037;28;20023;-80
2020/12/06 17:19:11;;;;;;;;;;;12.30;99.90;;;;;;5051568;28;19916;-79
2020/12/06 17:21:37;;;;;;;;;;;12.40;99.90;;;;;;5052668;28;19909;-80
2020/12/06 17:24:02;;;;;;;;;;;12.40;99.90;;;;;;5054579;28;19924;-81
2020/12/06 17:26:28;;;;;;;;;;;12.40;99.90;;;;;;5053443;28;19912;-83
2020/12/06 17:28:54;;;;;;;;;;;12.50;99.90;;;;;;5055088;28;19912;-83
2020/12/06 17:31:20;;;;;;;;;;;12.50;99.90;;;;;;5057005;28;19913;-83
2020/12/06 17:33:45;;;;;;;;;;;12.50;99.90;;;;;;5061094;28;20380;-84
2020/12/06 17:36:11;;;;;;;;;;;12.70;99.90;;;;;;5052171;28;20376;-83
2020/12/06 17:38:36;;;;;;;;;;;12.70;99.90;;;;;;5054550;28;19913;-83
2020/12/06 17:41:02;;;;;;;;;;;12.70;99.90;;;;;;5051675;28;19951;-82
2020/12/06 17:43:27;;;;;;;;;;;12.70;99.90;;;;;;5050809;28;19913;-82
2020/12/06 17:45:53;;;;;;;;;;;12.70;99.90;;;;;;5051202;28;19924;-80
2020/12/06 17:48:19;;;;;;;;;;;12.80;99.90;;;;;;5052694;28;20361;-85
2020/12/06 17:50:44;;;;;;;;;;;12.80;99.90;;;;;;5051310;28;19913;-86
2020/12/06 17:53:10;;;;;;;;;;;12.80;99.90;;;;;;5049269;28;19913;-84
2020/12/06 17:55:36;;;;;;;;;;;12.80;99.90;;;;;;5052521;28;19913;-85
2020/12/06 17:58:01;;;;;;;;;;;12.80;99.90;;;;;;5051034;28;19915;-77
2020/12/06 18:00:27;;;;;;;;;;;12.80;99.90;;;;;;5048564;28;20365;-78
2020/12/06 18:02:53;;;;;;;;;;;12.80;99.90;;;;;;5051394;28;19909;-79
2020/12/06 18:05:18;;;;;;;;;;;12.80;99.90;;;;;;5051082;28;20376;-78
2020/12/06 18:07:44;;;;;;;;;;;12.80;99.90;;;;;;5050339;28;19917;-78
2020/12/06 18:10:09;;;;;;;;;;;12.70;99.90;;;;;;5051225;28;19979;-79
2020/12/06 18:12:35;;;;;;;;;;;12.70;99.90;;;;;;5053035;28;19959;-79
2020/12/06 18:15:01;;;;;;;;;;;12.70;99.90;;;;;;5049635;28;20431;-79
2020/12/06 18:17:26;;;;;;;;;;;12.70;99.90;;;;;;5050694;28;19955;-80
2020/12/06 18:19:52;;;;;;;;;;;12.70;99.90;;;;;;5047826;28;20403;-79
2020/12/06 18:22:17;;;;;;;;;;;12.70;99.90;;;;;;5051070;28;19967;-79
2020/12/06 18:24:43;;;;;;;;;;;12.70;99.90;;;;;;5050140;28;20008;-76
2020/12/06 18:27:09;;;;;;;;;;;12.70;99.90;;;;;;5055401;28;20351;-78
2020/12/06 18:29:35;;;;;;;;;;;12.70;99.90;;;;;;5052746;28;19909;-77
2020/12/06 18:32:01;;;;;;;;;;;12.70;99.90;;;;;;5048027;28;21401;-76
2020/12/06 18:34:27;;;;;;;;;;;12.70;99.90;;;;;;5049545;28;20012;-76
2020/12/06 18:36:53;;;;;;;;;;;12.70;99.90;;;;;;5051656;28;19917;-76
2020/12/06 18:39:19;;;;;;;;;;;12.70;99.90;;;;;;5050504;28;19909;-79
2020/12/06 18:41:44;;;;;;;;;;;12.70;99.90;;;;;;5049759;28;19913;-77
2020/12/06 18:44:10;;;;;;;;;;;12.80;99.90;;;;;;5048330;28;19921;-78
2020/12/06 18:46:35;;;;;;;;;;;12.70;99.90;;;;;;5050618;28;19934;-77
2020/12/06 18:49:01;;;;;;;;;;;12.70;99.90;;;;;;5049988;28;20602;-77
2020/12/06 18:51:27;;;;;;;;;;;12.80;99.90;;;;;;5050837;28;19912;-76
2020/12/06 18:53:53;;;;;;;;;;;12.70;99.90;;;;;;5049942;28;19916;-79
2020/12/06 18:56:19;;;;;;;;;;;12.80;99.90;;;;;;5048560;28;19913;-83
2020/12/06 18:58:45;;;;;;;;;;;12.70;99.90;;;;;;5049451;28;19916;-80
2020/12/06 19:01:15;;;;;;;;;;;12.80;99.90;;;;;;5048679;28;20246;-82
2020/12/06 19:03:41;;;;;;;;;;;12.80;99.90;;;;;;5050550;28;19909;-83
2020/12/06 19:06:07;;;;;;;;;;;12.80;99.90;;;;;;5050541;28;19909;-83
2020/12/06 19:08:33;;;;;;;;;;;12.80;99.90;;;;;;5050434;28;19909;-84
2020/12/06 19:10:58;;;;;;;;;;;12.70;99.90;;;;;;5049013;28;19983;-85
2020/12/06 19:13:25;;;;;;;;;;;12.70;99.90;;;;;;5051119;28;19963;-78
2020/12/06 19:15:51;;;;;;;;;;;12.70;99.90;;;;;;5048684;28;19909;-78
2020/12/06 19:18:17;;;;;;;;;;;12.70;99.90;;;;;;5047499;28;19919;-78
2020/12/06 19:20:42;;;;;;;;;;;12.70;99.90;;;;;;5049416;28;20230;-78
2020/12/06 19:23:08;;;;;;;;;;;12.70;99.90;;;;;;5048509;28;19923;-78
2020/12/06 19:25:33;;;;;;;;;;;12.70;99.90;;;;;;5054784;28;19921;-78
2020/12/06 19:28:00;;;;;;;;;;;12.60;99.90;;;;;;5048760;28;19985;-76
2020/12/06 19:30:25;;;;;;;;;;;12.60;99.90;;;;;;5051685;28;19921;-78
2020/12/06 19:32:53;;;;;;;;;;;12.60;99.90;;;;;;5060431;28;19913;-78
2020/12/06 19:35:19;;;;;;;;;;;12.60;99.90;;;;;;5058786;28;20273;-79
2020/12/06 19:37:44;;;;;;;;;;;12.60;99.90;;;;;;5052841;28;19920;-77
2020/12/06 19:40:10;;;;;;;;;;;12.50;99.90;;;;;;5053531;28;19908;-78
2020/12/06 19:42:36;;;;;;;;;;;12.50;99.90;;;;;;5051176;28;19937;-77
2020/12/06 19:45:03;;;;;;;;;;;12.50;99.90;;;;;;5054108;28;19921;-79
2020/12/06 19:47:29;;;;;;;;;;;12.50;99.90;;;;;;5053290;28;19909;-79
2020/12/06 19:49:56;;;;;;;;;;;12.50;99.90;;;;;;5052239;28;20010;-78
2020/12/06 19:52:22;;;;;;;;;;;12.50;99.90;;;;;;5051560;28;19913;-79
2020/12/06 19:54:48;;;;;;;;;;;12.50;99.90;;;;;;5053438;28;19916;-78
2020/12/06 19:57:14;;;;;;;;;;;12.50;99.90;;;;;;5053131;28;19978;-77
2020/12/06 19:59:39;;;;;;;;;;;12.50;99.90;;;;;;5054240;28;19948;-78
2020/12/06 20:02:05;;;;;;;;;;;12.40;99.90;;;;;;5046010;28;19998;-81
2020/12/06 20:04:31;;;;;;;;;;;12.50;99.90;;;;;;5053473;28;19927;-75
2020/12/06 20:06:57;;;;;;;;;;;12.50;99.90;;;;;;5054602;28;19917;-76
2020/12/06 20:09:22;;;;;;;;;;;12.50;99.90;;;;;;5053495;28;19913;-75
2020/12/06 20:11:50;;;;;;;;;;;12.60;99.90;;;;;;5053171;28;19920;-77
2020/12/06 20:14:16;;;;;;;;;;;12.50;99.90;;;;;;5053238;28;19920;-76
2020/12/06 20:16:42;;;;;;;;;;;12.50;99.90;;;;;;5055793;28;20525;-76
2020/12/06 20:19:08;;;;;;;;;;;12.50;99.90;;;;;;5053232;28;19913;-76
2020/12/06 20:21:34;;;;;;;;;;;12.60;99.90;;;;;;5052274;28;20502;-75
2020/12/06 20:24:00;;;;;;;;;;;12.60;99.90;;;;;;5052546;28;19982;-76
2020/12/06 20:26:25;;;;;;;;;;;12.70;99.90;;;;;;5054973;28;19960;-76
2020/12/06 20:29:25;;;;;;;;;;;12.50;99.90;;;;;;5056646;28;20346;-77
2020/12/06 20:31:45;;;;;;;;;;;12.40;99.90;;;;;;5052279;28;19970;-76
2020/12/06 20:34:10;;;;;;;;;;;12.20;99.90;;;;;;5051705;28;19921;-80
2020/12/06 20:36:36;;;;;;;;;;;12.10;99.90;;;;;;5052708;28;19934;-77
2020/12/06 20:39:01;;;;;;;;;;;11.90;99.90;;;;;;5050757;28;19921;-77
2020/12/06 20:41:27;;;;;;;;;;;11.80;99.90;;;;;;5051275;28;20013;-77
2020/12/06 20:43:54;;;;;;;;;;;11.70;99.90;;;;;;5051399;28;19990;-77
2020/12/06 20:46:23;;;;;;;;;;;11.60;99.90;;;;;;5050785;28;19929;-78
2020/12/06 20:48:48;;;;;;;;;;;11.50;99.90;;;;;;5053877;28;19917;-78
2020/12/06 20:51:14;;;;;;;;;;;11.50;99.90;;;;;;5052717;28;20335;-78
2020/12/06 20:53:40;;;;;;;;;;;11.40;99.90;;;;;;5051699;28;19909;-78
2020/12/06 20:56:07;;;;;;;;;;;11.30;99.90;;;;;;5051942;28;19917;-77
2020/12/06 20:58:34;;;;;;;;;;;11.30;99.90;;;;;;5052521;28;20006;-78
2020/12/06 21:00:59;;;;;;;;;;;11.30;99.90;;;;;;5044719;28;19987;-77
2020/12/06 21:03:25;;;;;;;;;;;11.30;99.90;;;;;;5052089;28;20046;-77
2020/12/06 21:05:50;;;;;;;;;;;11.30;99.90;;;;;;5052129;28;19928;-76
2020/12/06 21:08:16;;;;;;;;;;;11.20;99.90;;;;;;5050311;28;19913;-77
2020/12/06 21:10:42;;;;;;;;;;;11.20;99.90;;;;;;5049488;28;19916;-77
2020/12/06 21:13:07;;;;;;;;;;;11.10;99.90;;;;;;5052072;28;19913;-77
2020/12/06 21:15:33;;;;;;;;;;;11.10;99.90;;;;;;5047552;28;20050;-78
2020/12/06 21:17:59;;;;;;;;;;;11.10;99.90;;;;;;5048937;28;19916;-78
2020/12/06 21:20:24;;;;;;;;;;;11.10;99.90;;;;;;5051785;28;19915;-78
2020/12/06 21:22:50;;;;;;;;;;;11.10;99.90;;;;;;5048816;28;19920;-77
2020/12/06 21:25:15;;;;;;;;;;;11.10;99.90;;;;;;5051366;28;19998;-77
2020/12/06 21:27:41;;;;;;;;;;;11.20;99.90;;;;;;5052122;28;19909;-78
2020/12/06 21:30:07;;;;;;;;;;;11.20;99.90;;;;;;5045951;28;19919;-82
2020/12/06 21:32:33;;;;;;;;;;;11.20;99.90;;;;;;5044689;28;19912;-77
2020/12/06 21:34:59;;;;;;;;;;;11.10;99.90;;;;;;5040667;28;19966;-77
2020/12/06 21:37:24;;;;;;;;;;;11.00;99.90;;;;;;5046368;28;19913;-77
2020/12/06 21:39:50;;;;;;;;;;;11.10;99.90;;;;;;5049188;28;19933;-77
2020/12/06 21:42:15;;;;;;;;;;;11.00;99.90;;;;;;5050378;28;19913;-78
2020/12/06 21:44:41;;;;;;;;;;;11.10;99.90;;;;;;5050045;28;20374;-77
2020/12/06 21:47:07;;;;;;;;;;;11.10;99.90;;;;;;5040296;28;19920;-77
2020/12/06 21:49:32;;;;;;;;;;;11.10;99.90;;;;;;5051789;28;19908;-77
2020/12/06 21:51:58;;;;;;;;;;;11.10;99.90;;;;;;5051007;28;19924;-77
